sensor_id;sensor_type;location;lat;lon;timestamp;pressure;altitude;pressure_sealevel;temperature;humidity
47260;BME280;32999;52.412;4.890;2022-12-18T00:00:50;102774.28;;;-2.35;100.00
47260;BME280;32999;52.412;4.890;2022-12-18T00:05:52;102695.00;;;-2.62;100.00
47260;BME280;32999;52.412;4.890;2022-12-18T00:11:03;102686.00;;;-2.55;100.00
47260;BME280;32999;52.412;4.890;2022-12-18T00:16:07;102722.88;;;-2.15;100.00
47260;BME280;32999;52.412;4.890;2022-12-18T00:21:10;102807.94;;;-1.78;100.00
47260;BME280;32999;52.412;4.890;2022-12-18T00:26:20;102810.16;;;-1.91;100.00
47260;BME280;32999;52.412;4.890;2022-12-18T00:31:24;102748.38;;;-2.43;100.00
47260;BME280;32999;52.412;4.890;2022-12-18T00:36:28;102704.88;;;-2.47;100.00
47260;BME280;32999;52.412;4.890;2022-12-18T00:41:31;102640.84;;;-2.84;100.00
47260;BME280;32999;52.412;4.890;2022-12-18T00:46:50;102798.38;;;-1.79;100.00
47260;BME280;32999;52.412;4.890;2022-12-18T00:51:52;102806.44;;;-1.62;100.00
47260;BME280;32999;52.412;4.890;2022-12-18T00:56:56;102800.28;;;-1.61;100.00
47260;BME280;32999;52.412;4.890;2022-12-18T01:01:57;102767.97;;;-2.07;100.00
47260;BME280;32999;52.412;4.890;2022-12-18T01:06:59;102812.00;;;-1.71;100.00
47260;BME280;32999;52.412;4.890;2022-12-18T01:12:03;102743.13;;;-2.43;100.00
47260;BME280;32999;52.412;4.890;2022-12-18T01:17:06;102811.81;;;-2.12;100.00
47260;BME280;32999;52.412;4.890;2022-12-18T01:22:08;102686.63;;;-2.72;100.00
47260;BME280;32999;52.412;4.890;2022-12-18T01:27:12;102821.22;;;-2.06;100.00
47260;BME280;32999;52.412;4.890;2022-12-18T01:32:13;102857.75;;;-2.01;100.00
47260;BME280;32999;52.412;4.890;2022-12-18T01:37:15;102842.13;;;-1.81;100.00
47260;BME280;32999;52.412;4.890;2022-12-18T01:42:18;102795.06;;;-2.31;100.00
47260;BME280;32999;52.412;4.890;2022-12-18T01:47:25;102771.38;;;-2.51;100.00
47260;BME280;32999;52.412;4.890;2022-12-18T01:52:32;102677.84;;;-3.19;100.00
47260;BME280;32999;52.412;4.890;2022-12-18T01:57:36;102860.53;;;-2.31;100.00
47260;BME280;32999;52.412;4.890;2022-12-18T02:02:40;102732.78;;;-3.21;100.00
47260;BME280;32999;52.412;4.890;2022-12-18T02:07:47;102874.50;;;-2.30;100.00
47260;BME280;32999;52.412;4.890;2022-12-18T02:12:57;102866.03;;;-2.63;100.00
47260;BME280;32999;52.412;4.890;2022-12-18T02:18:07;102802.13;;;-2.83;100.00
47260;BME280;32999;52.412;4.890;2022-12-18T02:23:21;102763.59;;;-3.02;100.00
47260;BME280;32999;52.412;4.890;2022-12-18T02:28:30;102729.97;;;-2.65;100.00
47260;BME280;32999;52.412;4.890;2022-12-18T02:33:34;102789.09;;;-2.59;100.00
47260;BME280;32999;52.412;4.890;2022-12-18T02:38:37;102842.47;;;-2.38;100.00
47260;BME280;32999;52.412;4.890;2022-12-18T02:43:46;102766.56;;;-2.63;100.00
47260;BME280;32999;52.412;4.890;2022-12-18T02:48:49;102801.34;;;-2.12;100.00
47260;BME280;32999;52.412;4.890;2022-12-18T02:53:53;102806.47;;;-2.09;100.00
47260;BME280;32999;52.412;4.890;2022-12-18T02:59:01;102842.56;;;-1.93;100.00
47260;BME280;32999;52.412;4.890;2022-12-18T03:04:09;102851.06;;;-2.10;100.00
47260;BME280;32999;52.412;4.890;2022-12-18T03:09:17;102844.81;;;-1.83;100.00
47260;BME280;32999;52.412;4.890;2022-12-18T03:14:23;102675.50;;;-2.77;100.00
47260;BME280;32999;52.412;4.890;2022-12-18T03:19:29;102792.16;;;-1.77;100.00
47260;BME280;32999;52.412;4.890;2022-12-18T03:24:33;102796.84;;;-2.08;100.00
47260;BME280;32999;52.412;4.890;2022-12-18T03:29:43;102747.34;;;-2.39;100.00
47260;BME280;32999;52.412;4.890;2022-12-18T03:34:49;102784.06;;;-2.41;100.00
47260;BME280;32999;52.412;4.890;2022-12-18T03:39:52;102813.28;;;-2.28;100.00
47260;BME280;32999;52.412;4.890;2022-12-18T03:45:00;102781.94;;;-2.29;100.00
47260;BME280;32999;52.412;4.890;2022-12-18T03:50:11;102602.56;;;-3.34;100.00
47260;BME280;32999;52.412;4.890;2022-12-18T03:55:20;102770.59;;;-2.30;100.00
47260;BME280;32999;52.412;4.890;2022-12-18T04:00:26;102668.56;;;-3.03;100.00
47260;BME280;32999;52.412;4.890;2022-12-18T04:05:30;102656.34;;;-3.02;100.00
47260;BME280;32999;52.412;4.890;2022-12-18T04:10:31;102788.03;;;-2.29;100.00
47260;BME280;32999;52.412;4.890;2022-12-18T04:15:36;102702.53;;;-2.53;100.00
47260;BME280;32999;52.412;4.890;2022-12-18T04:20:38;102623.53;;;-3.11;100.00
47260;BME280;32999;52.412;4.890;2022-12-18T04:25:40;102744.63;;;-2.36;100.00
47260;BME280;32999;52.412;4.890;2022-12-18T04:30:44;102709.44;;;-2.76;100.00
47260;BME280;32999;52.412;4.890;2022-12-18T04:35:46;102719.13;;;-2.78;100.00
47260;BME280;32999;52.412;4.890;2022-12-18T04:40:48;102767.41;;;-2.38;100.00
47260;BME280;32999;52.412;4.890;2022-12-18T04:45:51;102776.38;;;-2.45;100.00
47260;BME280;32999;52.412;4.890;2022-12-18T04:50:53;102660.19;;;-3.37;100.00
47260;BME280;32999;52.412;4.890;2022-12-18T04:56:03;102787.19;;;-2.54;100.00
47260;BME280;32999;52.412;4.890;2022-12-18T05:01:07;102800.44;;;-2.59;100.00
47260;BME280;32999;52.412;4.890;2022-12-18T05:06:09;102743.63;;;-3.05;100.00
47260;BME280;32999;52.412;4.890;2022-12-18T05:11:12;102809.59;;;-2.72;100.00
47260;BME280;32999;52.412;4.890;2022-12-18T05:16:17;102823.81;;;-2.79;100.00
47260;BME280;32999;52.412;4.890;2022-12-18T05:21:19;102823.06;;;-2.83;100.00
47260;BME280;32999;52.412;4.890;2022-12-18T05:26:21;102830.63;;;-2.73;100.00
47260;BME280;32999;52.412;4.890;2022-12-18T05:31:24;102786.28;;;-3.03;100.00
47260;BME280;32999;52.412;4.890;2022-12-18T05:36:26;102609.22;;;-3.75;100.00
47260;BME280;32999;52.412;4.890;2022-12-18T05:41:28;102781.88;;;-2.76;100.00
47260;BME280;32999;52.412;4.890;2022-12-18T05:46:32;102722.03;;;-3.12;100.00
47260;BME280;32999;52.412;4.890;2022-12-18T05:51:34;102658.09;;;-3.53;100.00
47260;BME280;32999;52.412;4.890;2022-12-18T05:56:36;102588.44;;;-4.33;100.00
47260;BME280;32999;52.412;4.890;2022-12-18T06:01:42;102777.63;;;-3.31;100.00
47260;BME280;32999;52.412;4.890;2022-12-18T06:06:45;102683.91;;;-3.96;100.00
47260;BME280;32999;52.412;4.890;2022-12-18T06:11:53;102584.03;;;-4.59;100.00
47260;BME280;32999;52.412;4.890;2022-12-18T06:17:13;102690.09;;;-3.99;100.00
47260;BME280;32999;52.412;4.890;2022-12-18T06:22:30;102670.75;;;-4.21;100.00
47260;BME280;32999;52.412;4.890;2022-12-18T06:27:33;102769.34;;;-3.46;100.00
47260;BME280;32999;52.412;4.890;2022-12-18T06:32:36;102748.44;;;-3.46;100.00
47260;BME280;32999;52.412;4.890;2022-12-18T06:37:38;102758.13;;;-3.48;100.00
47260;BME280;32999;52.412;4.890;2022-12-18T06:42:40;102577.50;;;-4.18;100.00
47260;BME280;32999;52.412;4.890;2022-12-18T06:47:44;102540.00;;;-4.41;100.00
47260;BME280;32999;52.412;4.890;2022-12-18T06:52:46;102698.19;;;-3.54;100.00
47260;BME280;32999;52.412;4.890;2022-12-18T06:57:48;102563.88;;;-4.54;100.00
47260;BME280;32999;52.412;4.890;2022-12-18T07:02:52;102720.66;;;-3.48;100.00
47260;BME280;32999;52.412;4.890;2022-12-18T07:07:54;102659.00;;;-3.80;100.00
47260;BME280;32999;52.412;4.890;2022-12-18T07:12:56;102723.34;;;-3.50;100.00
47260;BME280;32999;52.412;4.890;2022-12-18T07:17:59;102657.78;;;-3.96;100.00
47260;BME280;32999;52.412;4.890;2022-12-18T07:23:01;102574.09;;;-4.46;100.00
47260;BME280;32999;52.412;4.890;2022-12-18T07:28:03;102575.84;;;-4.47;100.00
47260;BME280;32999;52.412;4.890;2022-12-18T07:33:07;102452.91;;;-4.92;100.00
47260;BME280;32999;52.412;4.890;2022-12-18T07:38:10;102674.69;;;-3.54;100.00
47260;BME280;32999;52.412;4.890;2022-12-18T07:43:13;102522.00;;;-4.23;100.00
47260;BME280;32999;52.412;4.890;2022-12-18T07:48:16;102538.41;;;-4.46;100.00
47260;BME280;32999;52.412;4.890;2022-12-18T07:53:18;102636.03;;;-3.70;100.00
47260;BME280;32999;52.412;4.890;2022-12-18T07:58:20;102577.53;;;-3.91;100.00
47260;BME280;32999;52.412;4.890;2022-12-18T08:03:23;102454.97;;;-4.73;100.00
47260;BME280;32999;52.412;4.890;2022-12-18T08:08:25;102648.81;;;-3.36;100.00
47260;BME280;32999;52.412;4.890;2022-12-18T08:13:30;102674.13;;;-3.12;100.00
47260;BME280;32999;52.412;4.890;2022-12-18T08:18:41;102686.28;;;-3.11;100.00
47260;BME280;32999;52.412;4.890;2022-12-18T08:23:43;102693.97;;;-3.06;100.00
47260;BME280;32999;52.412;4.890;2022-12-18T08:28:45;102681.16;;;-2.89;100.00
47260;BME280;32999;52.412;4.890;2022-12-18T08:33:56;102659.72;;;-2.99;100.00
47260;BME280;32999;52.412;4.890;2022-12-18T08:39:02;102660.38;;;-2.94;100.00
47260;BME280;32999;52.412;4.890;2022-12-18T08:44:25;102681.25;;;-3.17;100.00
47260;BME280;32999;52.412;4.890;2022-12-18T08:49:47;102543.81;;;-3.48;100.00
47260;BME280;32999;52.412;4.890;2022-12-18T08:55:10;102637.41;;;-2.62;100.00
47260;BME280;32999;52.412;4.890;2022-12-18T09:00:19;102642.72;;;-2.64;100.00
47260;BME280;32999;52.412;4.890;2022-12-18T09:05:23;102643.06;;;-2.50;100.00
47260;BME280;32999;52.412;4.890;2022-12-18T09:10:27;102650.63;;;-2.65;100.00
47260;BME280;32999;52.412;4.890;2022-12-18T09:15:32;102666.31;;;-2.42;100.00
47260;BME280;32999;52.412;4.890;2022-12-18T09:20:36;102646.72;;;-2.32;100.00
47260;BME280;32999;52.412;4.890;2022-12-18T09:25:42;102586.69;;;-3.05;100.00
47260;BME280;32999;52.412;4.890;2022-12-18T09:31:07;102529.66;;;-2.95;100.00
47260;BME280;32999;52.412;4.890;2022-12-18T09:36:19;102619.06;;;-2.39;100.00
47260;BME280;32999;52.412;4.890;2022-12-18T09:41:43;102615.41;;;-2.35;100.00
47260;BME280;32999;52.412;4.890;2022-12-18T09:47:17;102607.25;;;-2.49;100.00
47260;BME280;32999;52.412;4.890;2022-12-18T09:52:28;102602.44;;;-2.38;100.00
47260;BME280;32999;52.412;4.890;2022-12-18T09:57:36;102582.59;;;-2.22;100.00
47260;BME280;32999;52.412;4.890;2022-12-18T10:02:40;102539.44;;;-2.55;100.00
47260;BME280;32999;52.412;4.890;2022-12-18T10:07:53;102568.47;;;-2.61;100.00
47260;BME280;32999;52.412;4.890;2022-12-18T10:13:09;102524.47;;;-2.73;100.00
47260;BME280;32999;52.412;4.890;2022-12-18T10:18:22;102537.66;;;-2.33;100.00
47260;BME280;32999;52.412;4.890;2022-12-18T10:23:47;102596.22;;;-1.72;100.00
47260;BME280;32999;52.412;4.890;2022-12-18T10:28:53;102516.94;;;-1.97;100.00
47260;BME280;32999;52.412;4.890;2022-12-18T10:33:57;102592.00;;;-1.54;100.00
47260;BME280;32999;52.412;4.890;2022-12-18T10:39:14;102493.31;;;-1.95;100.00
47260;BME280;32999;52.412;4.890;2022-12-18T10:44:18;102508.50;;;-1.63;100.00
47260;BME280;32999;52.412;4.890;2022-12-18T10:49:25;102573.44;;;-1.29;100.00
47260;BME280;32999;52.412;4.890;2022-12-18T10:54:31;102560.13;;;-1.24;100.00
47260;BME280;32999;52.412;4.890;2022-12-18T10:59:50;102487.19;;;-1.55;100.00
47260;BME280;32999;52.412;4.890;2022-12-18T11:04:57;102516.47;;;-1.46;100.00
47260;BME280;32999;52.412;4.890;2022-12-18T11:15:30;102405.47;;;-1.65;100.00
47260;BME280;32999;52.412;4.890;2022-12-18T11:20:37;102445.81;;;-1.11;100.00
47260;BME280;32999;52.412;4.890;2022-12-18T11:25:39;102541.38;;;-0.42;100.00
47260;BME280;32999;52.412;4.890;2022-12-18T11:30:43;102521.75;;;-0.35;100.00
47260;BME280;32999;52.412;4.890;2022-12-18T11:36:01;102451.19;;;-0.77;100.00
47260;BME280;32999;52.412;4.890;2022-12-18T11:41:12;102494.16;;;-0.43;100.00
47260;BME280;32999;52.412;4.890;2022-12-18T11:46:23;102386.16;;;-1.25;100.00
47260;BME280;32999;52.412;4.890;2022-12-18T11:51:38;102483.94;;;-0.49;100.00
47260;BME280;32999;52.412;4.890;2022-12-18T11:56:46;102337.66;;;-0.99;100.00
47260;BME280;32999;52.412;4.890;2022-12-18T12:01:54;102448.44;;;-0.39;100.00
47260;BME280;32999;52.412;4.890;2022-12-18T12:07:07;102430.91;;;-0.04;100.00
47260;BME280;32999;52.412;4.890;2022-12-18T12:12:29;102456.19;;;-0.02;100.00
47260;BME280;32999;52.412;4.890;2022-12-18T12:17:54;102426.06;;;-0.29;100.00
47260;BME280;32999;52.412;4.890;2022-12-18T12:23:09;102421.44;;;0.09;100.00
47260;BME280;32999;52.412;4.890;2022-12-18T12:28:26;102304.94;;;-0.57;100.00
47260;BME280;32999;52.412;4.890;2022-12-18T12:34:01;102415.03;;;0.30;100.00
47260;BME280;32999;52.412;4.890;2022-12-18T12:39:16;102406.31;;;0.30;100.00
47260;BME280;32999;52.412;4.890;2022-12-18T12:44:42;102341.50;;;-0.20;100.00
47260;BME280;32999;52.412;4.890;2022-12-18T12:50:32;102397.63;;;0.45;100.00
47260;BME280;32999;52.412;4.890;2022-12-18T12:55:35;102391.03;;;0.21;100.00
47260;BME280;32999;52.412;4.890;2022-12-18T13:00:54;102385.41;;;0.44;100.00
47260;BME280;32999;52.412;4.890;2022-12-18T13:06:11;102379.09;;;0.31;100.00
47260;BME280;32999;52.412;4.890;2022-12-18T13:11:48;102346.38;;;0.04;100.00
47260;BME280;32999;52.412;4.890;2022-12-18T13:17:36;102361.38;;;0.02;100.00
47260;BME280;32999;52.412;4.890;2022-12-18T13:22:57;102353.72;;;0.14;100.00
47260;BME280;32999;52.412;4.890;2022-12-18T13:28:13;102345.75;;;0.16;100.00
47260;BME280;32999;52.412;4.890;2022-12-18T13:33:49;102322.72;;;0.04;100.00
47260;BME280;32999;52.412;4.890;2022-12-18T13:44:47;102297.25;;;0.21;100.00
47260;BME280;32999;52.412;4.890;2022-12-18T13:56:07;102285.94;;;0.04;100.00
47260;BME280;32999;52.412;4.890;2022-12-18T14:01:31;102288.69;;;0.18;100.00
47260;BME280;32999;52.412;4.890;2022-12-18T14:06:34;102258.16;;;-0.01;100.00
47260;BME280;32999;52.412;4.890;2022-12-18T14:11:40;102279.41;;;0.26;100.00
47260;BME280;32999;52.412;4.890;2022-12-18T14:16:50;102280.19;;;0.13;100.00
47260;BME280;32999;52.412;4.890;2022-12-18T14:22:15;102214.41;;;-0.02;100.00
47260;BME280;32999;52.412;4.890;2022-12-18T14:27:31;102270.19;;;0.19;100.00
47260;BME280;32999;52.412;4.890;2022-12-18T14:33:01;102242.63;;;0.42;100.00
47260;BME280;32999;52.412;4.890;2022-12-18T14:44:07;102210.31;;;0.09;100.00
47260;BME280;32999;52.412;4.890;2022-12-18T14:49:50;102209.00;;;0.31;100.00
47260;BME280;32999;52.412;4.890;2022-12-18T14:55:21;102198.53;;;0.16;100.00
47260;BME280;32999;52.412;4.890;2022-12-18T15:00:30;102206.06;;;0.22;100.00
47260;BME280;32999;52.412;4.890;2022-12-18T15:11:32;102222.63;;;0.54;100.00
47260;BME280;32999;52.412;4.890;2022-12-18T15:17:01;102197.19;;;0.54;100.00
47260;BME280;32999;52.412;4.890;2022-12-18T15:22:25;102203.78;;;0.61;100.00
47260;BME280;32999;52.412;4.890;2022-12-18T15:27:32;102187.06;;;0.32;100.00
47260;BME280;32999;52.412;4.890;2022-12-18T15:32:37;102173.59;;;0.53;100.00
47260;BME280;32999;52.412;4.890;2022-12-18T15:37:52;102173.97;;;0.47;100.00
47260;BME280;32999;52.412;4.890;2022-12-18T15:43:10;102132.25;;;0.25;100.00
47260;BME280;32999;52.412;4.890;2022-12-18T15:48:39;102152.72;;;0.50;100.00
47260;BME280;32999;52.412;4.890;2022-12-18T15:53:55;102095.41;;;0.11;100.00
47260;BME280;32999;52.412;4.890;2022-12-18T15:59:01;102146.84;;;0.60;100.00
47260;BME280;32999;52.412;4.890;2022-12-18T16:10:09;102122.00;;;0.50;100.00
47260;BME280;32999;52.412;4.890;2022-12-18T16:27:07;102101.09;;;0.49;100.00
47260;BME280;32999;52.412;4.890;2022-12-18T16:32:15;102119.66;;;0.16;100.00
47260;BME280;32999;52.412;4.890;2022-12-18T16:37:22;102101.28;;;0.16;100.00
47260;BME280;32999;52.412;4.890;2022-12-18T16:42:34;102088.47;;;0.40;100.00
47260;BME280;32999;52.412;4.890;2022-12-18T16:47:46;102090.28;;;0.53;100.00
47260;BME280;32999;52.412;4.890;2022-12-18T17:05:17;102073.94;;;0.48;100.00
47260;BME280;32999;52.412;4.890;2022-12-18T17:10:19;102035.22;;;0.36;100.00
47260;BME280;32999;52.412;4.890;2022-12-18T17:15:20;102070.88;;;0.84;100.00
47260;BME280;32999;52.412;4.890;2022-12-18T17:20:24;102032.22;;;0.56;100.00
47260;BME280;32999;52.412;4.890;2022-12-18T17:25:27;101995.41;;;0.42;100.00
47260;BME280;32999;52.412;4.890;2022-12-18T17:30:29;102042.88;;;0.69;100.00
47260;BME280;32999;52.412;4.890;2022-12-18T17:35:32;102058.84;;;0.80;100.00
47260;BME280;32999;52.412;4.890;2022-12-18T17:40:34;102070.78;;;0.86;100.00
47260;BME280;32999;52.412;4.890;2022-12-18T17:45:37;102056.09;;;0.82;100.00
47260;BME280;32999;52.412;4.890;2022-12-18T17:50:41;102055.94;;;0.99;100.00
47260;BME280;32999;52.412;4.890;2022-12-18T17:55:52;102059.59;;;1.11;100.00
47260;BME280;32999;52.412;4.890;2022-12-18T18:00:56;102037.28;;;1.02;100.00
47260;BME280;32999;52.412;4.890;2022-12-18T18:06:01;102036.25;;;1.19;100.00
47260;BME280;32999;52.412;4.890;2022-12-18T18:11:04;102038.06;;;1.18;100.00
47260;BME280;32999;52.412;4.890;2022-12-18T18:16:20;102044.59;;;1.25;100.00
47260;BME280;32999;52.412;4.890;2022-12-18T18:21:23;102030.66;;;1.38;100.00
47260;BME280;32999;52.412;4.890;2022-12-18T18:26:25;102013.66;;;1.29;100.00
47260;BME280;32999;52.412;4.890;2022-12-18T18:31:29;102020.81;;;1.54;100.00
47260;BME280;32999;52.412;4.890;2022-12-18T18:36:35;102029.72;;;1.39;100.00
47260;BME280;32999;52.412;4.890;2022-12-18T18:41:37;101985.19;;;1.21;100.00
47260;BME280;32999;52.412;4.890;2022-12-18T18:46:41;102014.47;;;1.44;100.00
47260;BME280;32999;52.412;4.890;2022-12-18T18:51:58;102023.31;;;1.43;100.00
47260;BME280;32999;52.412;4.890;2022-12-18T18:57:00;101937.06;;;1.05;100.00
47260;BME280;32999;52.412;4.890;2022-12-18T19:02:20;102027.09;;;1.39;100.00
47260;BME280;32999;52.412;4.890;2022-12-18T19:07:23;101923.47;;;1.25;100.00
47260;BME280;32999;52.412;4.890;2022-12-18T19:12:25;102010.03;;;1.17;100.00
47260;BME280;32999;52.412;4.890;2022-12-18T19:17:44;102005.81;;;1.42;100.00
47260;BME280;32999;52.412;4.890;2022-12-18T19:22:47;102015.63;;;1.25;100.00
47260;BME280;32999;52.412;4.890;2022-12-18T19:27:49;101903.84;;;0.34;100.00
47260;BME280;32999;52.412;4.890;2022-12-18T19:32:51;102036.09;;;0.65;100.00
47260;BME280;32999;52.412;4.890;2022-12-18T19:37:54;101923.06;;;0.07;100.00
47260;BME280;32999;52.412;4.890;2022-12-18T19:42:56;102018.41;;;0.39;100.00
47260;BME280;32999;52.412;4.890;2022-12-18T19:47:58;101910.09;;;-0.11;100.00
47260;BME280;32999;52.412;4.890;2022-12-18T19:53:01;101949.69;;;0.00;100.00
47260;BME280;32999;52.412;4.890;2022-12-18T19:58:03;102020.69;;;0.45;100.00
47260;BME280;32999;52.412;4.890;2022-12-18T20:03:05;101935.44;;;-0.10;100.00
47260;BME280;32999;52.412;4.890;2022-12-18T20:08:12;102014.00;;;0.39;100.00
47260;BME280;32999;52.412;4.890;2022-12-18T20:13:15;102017.19;;;0.44;100.00
47260;BME280;32999;52.412;4.890;2022-12-18T20:18:16;102007.03;;;0.38;100.00
47260;BME280;32999;52.412;4.890;2022-12-18T20:23:20;101904.78;;;-0.39;100.00
47260;BME280;32999;52.412;4.890;2022-12-18T20:28:25;101997.25;;;0.26;100.00
47260;BME280;32999;52.412;4.890;2022-12-18T20:33:28;101993.22;;;0.34;100.00
47260;BME280;32999;52.412;4.890;2022-12-18T20:38:59;101978.31;;;0.49;100.00
47260;BME280;32999;52.412;4.890;2022-12-18T20:44:03;101964.59;;;0.58;100.00
47260;BME280;32999;52.412;4.890;2022-12-18T20:49:05;101946.28;;;0.28;100.00
47260;BME280;32999;52.412;4.890;2022-12-18T20:54:11;101960.84;;;0.62;100.00
47260;BME280;32999;52.412;4.890;2022-12-18T20:59:13;101960.47;;;0.54;100.00
47260;BME280;32999;52.412;4.890;2022-12-18T21:04:16;101943.19;;;0.64;100.00
47260;BME280;32999;52.412;4.890;2022-12-18T21:09:19;101880.84;;;-0.05;100.00
47260;BME280;32999;52.412;4.890;2022-12-18T21:14:23;101889.00;;;0.48;100.00
47260;BME280;32999;52.412;4.890;2022-12-18T21:19:26;101927.06;;;0.97;100.00
47260;BME280;32999;52.412;4.890;2022-12-18T21:24:29;101826.41;;;0.53;100.00
47260;BME280;32999;52.412;4.890;2022-12-18T21:29:31;101888.22;;;0.74;100.00
47260;BME280;32999;52.412;4.890;2022-12-18T21:34:34;101892.41;;;0.77;100.00
47260;BME280;32999;52.412;4.890;2022-12-18T21:39:38;101926.56;;;1.05;100.00
47260;BME280;32999;52.412;4.890;2022-12-18T21:44:46;101899.25;;;0.93;100.00
47260;BME280;32999;52.412;4.890;2022-12-18T21:49:48;101877.78;;;0.99;100.00
47260;BME280;32999;52.412;4.890;2022-12-18T21:55:08;101860.63;;;0.94;100.00
47260;BME280;32999;52.412;4.890;2022-12-18T22:00:12;101807.91;;;0.54;100.00
47260;BME280;32999;52.412;4.890;2022-12-18T22:05:20;101873.97;;;0.91;100.00
47260;BME280;32999;52.412;4.890;2022-12-18T22:10:24;101822.38;;;0.88;100.00
47260;BME280;32999;52.412;4.890;2022-12-18T22:15:26;101847.56;;;0.92;100.00
47260;BME280;32999;52.412;4.890;2022-12-18T22:20:30;101818.63;;;1.05;100.00
47260;BME280;32999;52.412;4.890;2022-12-18T22:25:34;101778.13;;;0.81;100.00
47260;BME280;32999;52.412;4.890;2022-12-18T22:30:36;101796.97;;;1.14;100.00
47260;BME280;32999;52.412;4.890;2022-12-18T22:35:38;101748.09;;;0.97;100.00
47260;BME280;32999;52.412;4.890;2022-12-18T22:40:49;101776.44;;;1.19;100.00
47260;BME280;32999;52.412;4.890;2022-12-18T22:45:50;101681.72;;;0.67;100.00
47260;BME280;32999;52.412;4.890;2022-12-18T22:50:52;101755.81;;;1.39;100.00
47260;BME280;32999;52.412;4.890;2022-12-18T22:56:00;101746.06;;;1.01;100.00
47260;BME280;32999;52.412;4.890;2022-12-18T23:01:03;101768.00;;;1.27;100.00
47260;BME280;32999;52.412;4.890;2022-12-18T23:06:05;101713.97;;;1.09;100.00
47260;BME280;32999;52.412;4.890;2022-12-18T23:11:09;101749.91;;;1.35;100.00
47260;BME280;32999;52.412;4.890;2022-12-18T23:16:13;101652.28;;;0.87;100.00
47260;BME280;32999;52.412;4.890;2022-12-18T23:21:17;101740.84;;;1.39;100.00
47260;BME280;32999;52.412;4.890;2022-12-18T23:26:22;101683.44;;;1.06;100.00
47260;BME280;32999;52.412;4.890;2022-12-18T23:31:26;101706.81;;;1.49;100.00
47260;BME280;32999;52.412;4.890;2022-12-18T23:36:28;101632.38;;;1.09;100.00
47260;BME280;32999;52.412;4.890;2022-12-18T23:41:32;101721.16;;;1.45;100.00
47260;BME280;32999;52.412;4.890;2022-12-18T23:46:34;101754.84;;;1.52;100.00
47260;BME280;32999;52.412;4.890;2022-12-18T23:51:36;101734.84;;;1.62;100.00
47260;BME280;32999;52.412;4.890;2022-12-18T23:56:40;101615.31;;;1.01;100.00
